sensor_id;sensor_type;location;lat;lon;timestamp;P1;P2;P0
63915;PMS5003;50094;51.356;-0.196;2023-02-28T00:01:09;21;21;
63915;PMS5003;50094;51.356;-0.196;2023-02-28T00:03:43;11;11;
63915;PMS5003;50094;51.356;-0.196;2023-02-28T00:06:21;7;7;
63915;PMS5003;50094;51.356;-0.196;2023-02-28T00:08:49;4;3;
63915;PMS5003;50094;51.356;-0.196;2023-02-28T00:11:17;0;0;
63915;PMS5003;50094;51.356;-0.196;2023-02-28T00:13:45;0;0;
63915;PMS5003;50094;51.356;-0.196;2023-02-28T00:16:14;0;0;
63915;PMS5003;50094;51.356;-0.196;2023-02-28T00:18:42;1;1;
63915;PMS5003;50094;51.356;-0.196;2023-02-28T00:21:10;4;4;
63915;PMS5003;50094;51.356;-0.196;2023-02-28T00:23:38;5;5;
63915;PMS5003;50094;51.356;-0.196;2023-02-28T00:26:05;7;6;
63915;PMS5003;50094;51.356;-0.196;2023-02-28T00:28:32;8;8;
63915;PMS5003;50094;51.356;-0.196;2023-02-28T00:31:00;9;9;
63915;PMS5003;50094;51.356;-0.196;2023-02-28T00:33:28;10;10;
63915;PMS5003;50094;51.356;-0.196;2023-02-28T00:36:04;13;13;
63915;PMS5003;50094;51.356;-0.196;2023-02-28T00:38:33;16;16;
63915;PMS5003;50094;51.356;-0.196;2023-02-28T00:41:01;17;17;
63915;PMS5003;50094;51.356;-0.196;2023-02-28T00:43:29;17;17;
63915;PMS5003;50094;51.356;-0.196;2023-02-28T00:45:58;19;18;
63915;PMS5003;50094;51.356;-0.196;2023-02-28T00:48:25;15;15;
63915;PMS5003;50094;51.356;-0.196;2023-02-28T00:50:53;14;14;
63915;PMS5003;50094;51.356;-0.196;2023-02-28T00:53:21;13;13;
63915;PMS5003;50094;51.356;-0.196;2023-02-28T00:55:49;12;11;
63915;PMS5003;50094;51.356;-0.196;2023-02-28T00:58:16;12;12;
63915;PMS5003;50094;51.356;-0.196;2023-02-28T01:00:44;13;13;
63915;PMS5003;50094;51.356;-0.196;2023-02-28T01:03:12;12;12;
63915;PMS5003;50094;51.356;-0.196;2023-02-28T01:05:40;13;13;
63915;PMS5003;50094;51.356;-0.196;2023-02-28T01:08:07;14;14;
63915;PMS5003;50094;51.356;-0.196;2023-02-28T01:10:35;14;14;
63915;PMS5003;50094;51.356;-0.196;2023-02-28T01:13:03;14;14;
63915;PMS5003;50094;51.356;-0.196;2023-02-28T01:15:31;15;15;
63915;PMS5003;50094;51.356;-0.196;2023-02-28T01:17:59;16;16;
63915;PMS5003;50094;51.356;-0.196;2023-02-28T01:20:27;19;19;
63915;PMS5003;50094;51.356;-0.196;2023-02-28T01:22:54;18;18;
63915;PMS5003;50094;51.356;-0.196;2023-02-28T01:25:22;20;20;
63915;PMS5003;50094;51.356;-0.196;2023-02-28T01:27:50;21;21;
63915;PMS5003;50094;51.356;-0.196;2023-02-28T01:30:18;21;21;
63915;PMS5003;50094;51.356;-0.196;2023-02-28T01:32:45;18;18;
63915;PMS5003;50094;51.356;-0.196;2023-02-28T01:35:13;22;22;
63915;PMS5003;50094;51.356;-0.196;2023-02-28T01:37:41;22;22;
63915;PMS5003;50094;51.356;-0.196;2023-02-28T01:40:08;26;26;
63915;PMS5003;50094;51.356;-0.196;2023-02-28T01:42:37;23;23;
63915;PMS5003;50094;51.356;-0.196;2023-02-28T01:45:09;24;24;
63915;PMS5003;50094;51.356;-0.196;2023-02-28T01:47:48;19;19;
63915;PMS5003;50094;51.356;-0.196;2023-02-28T01:50:20;27;27;
63915;PMS5003;50094;51.356;-0.196;2023-02-28T01:52:49;25;25;
63915;PMS5003;50094;51.356;-0.196;2023-02-28T01:55:18;24;24;
63915;PMS5003;50094;51.356;-0.196;2023-02-28T01:57:50;20;20;
63915;PMS5003;50094;51.356;-0.196;2023-02-28T02:00:22;27;27;
63915;PMS5003;50094;51.356;-0.196;2023-02-28T02:02:53;12;12;
63915;PMS5003;50094;51.356;-0.196;2023-02-28T02:05:24;7;7;
63915;PMS5003;50094;51.356;-0.196;2023-02-28T02:07:54;25;25;
63915;PMS5003;50094;51.356;-0.196;2023-02-28T02:10:25;13;13;
63915;PMS5003;50094;51.356;-0.196;2023-02-28T02:13:08;7;7;
63915;PMS5003;50094;51.356;-0.196;2023-02-28T02:15:48;32;32;
63915;PMS5003;50094;51.356;-0.196;2023-02-28T02:18:24;19;19;
63915;PMS5003;50094;51.356;-0.196;2023-02-28T02:21:07;15;15;
63915;PMS5003;50094;51.356;-0.196;2023-02-28T02:24:24;19;19;
63915;PMS5003;50094;51.356;-0.196;2023-02-28T02:27:13;4;4;
63915;PMS5003;50094;51.356;-0.196;2023-02-28T02:30:21;6;6;
63915;PMS5003;50094;51.356;-0.196;2023-02-28T02:33:14;10;10;
63915;PMS5003;50094;51.356;-0.196;2023-02-28T02:35:35;10;10;
63915;PMS5003;50094;51.356;-0.196;2023-02-28T02:38:10;15;15;
63915;PMS5003;50094;51.356;-0.196;2023-02-28T02:40:47;38;38;
63915;PMS5003;50094;51.356;-0.196;2023-02-28T02:43:22;10;10;
63915;PMS5003;50094;51.356;-0.196;2023-02-28T02:45:56;22;22;
63915;PMS5003;50094;51.356;-0.196;2023-02-28T02:48:29;17;17;
63915;PMS5003;50094;51.356;-0.196;2023-02-28T02:51:01;11;11;
63915;PMS5003;50094;51.356;-0.196;2023-02-28T02:53:34;39;39;
63915;PMS5003;50094;51.356;-0.196;2023-02-28T02:56:07;17;17;
63915;PMS5003;50094;51.356;-0.196;2023-02-28T02:58:37;25;25;
63915;PMS5003;50094;51.356;-0.196;2023-02-28T03:01:10;30;30;
63915;PMS5003;50094;51.356;-0.196;2023-02-28T03:03:41;36;36;
63915;PMS5003;50094;51.356;-0.196;2023-02-28T03:06:09;41;41;
63915;PMS5003;50094;51.356;-0.196;2023-02-28T03:08:36;32;32;
63915;PMS5003;50094;51.356;-0.196;2023-02-28T03:11:05;20;20;
63915;PMS5003;50094;51.356;-0.196;2023-02-28T03:14:45;36;35;
63915;PMS5003;50094;51.356;-0.196;2023-02-28T03:17:43;12;12;
63915;PMS5003;50094;51.356;-0.196;2023-02-28T03:20:24;34;34;
63915;PMS5003;50094;51.356;-0.196;2023-02-28T03:23:02;49;49;
63915;PMS5003;50094;51.356;-0.196;2023-02-28T03:25:37;30;30;
63915;PMS5003;50094;51.356;-0.196;2023-02-28T03:28:15;37;37;
63915;PMS5003;50094;51.356;-0.196;2023-02-28T03:30:49;40;40;
63915;PMS5003;50094;51.356;-0.196;2023-02-28T03:33:21;36;35;
63915;PMS5003;50094;51.356;-0.196;2023-02-28T03:35:54;38;38;
63915;PMS5003;50094;51.356;-0.196;2023-02-28T03:38:27;35;35;
63915;PMS5003;50094;51.356;-0.196;2023-02-28T03:41:01;32;30;
63915;PMS5003;50094;51.356;-0.196;2023-02-28T03:43:34;29;29;
63915;PMS5003;50094;51.356;-0.196;2023-02-28T03:46:06;28;28;
63915;PMS5003;50094;51.356;-0.196;2023-02-28T03:48:38;16;16;
63915;PMS5003;50094;51.356;-0.196;2023-02-28T03:51:10;24;24;
63915;PMS5003;50094;51.356;-0.196;2023-02-28T03:53:44;16;15;
63915;PMS5003;50094;51.356;-0.196;2023-02-28T03:56:16;3;3;
63915;PMS5003;50094;51.356;-0.196;2023-02-28T03:58:47;2;2;
63915;PMS5003;50094;51.356;-0.196;2023-02-28T04:01:20;1;0;
63915;PMS5003;50094;51.356;-0.196;2023-02-28T04:03:53;3;1;
63915;PMS5003;50094;51.356;-0.196;2023-02-28T04:06:21;0;0;
63915;PMS5003;50094;51.356;-0.196;2023-02-28T04:08:50;0;0;
63915;PMS5003;50094;51.356;-0.196;2023-02-28T04:11:20;0;0;
63915;PMS5003;50094;51.356;-0.196;2023-02-28T04:13:50;0;0;
63915;PMS5003;50094;51.356;-0.196;2023-02-28T04:16:18;0;0;
63915;PMS5003;50094;51.356;-0.196;2023-02-28T04:18:45;0;0;
63915;PMS5003;50094;51.356;-0.196;2023-02-28T04:21:13;0;0;
63915;PMS5003;50094;51.356;-0.196;2023-02-28T04:23:41;0;0;
63915;PMS5003;50094;51.356;-0.196;2023-02-28T04:26:09;2;1;
63915;PMS5003;50094;51.356;-0.196;2023-02-28T04:28:36;0;0;
63915;PMS5003;50094;51.356;-0.196;2023-02-28T04:31:04;0;0;
63915;PMS5003;50094;51.356;-0.196;2023-02-28T04:33:32;0;0;
63915;PMS5003;50094;51.356;-0.196;2023-02-28T04:36:00;1;0;
63915;PMS5003;50094;51.356;-0.196;2023-02-28T04:38:31;0;0;
63915;PMS5003;50094;51.356;-0.196;2023-02-28T04:40:59;0;0;
63915;PMS5003;50094;51.356;-0.196;2023-02-28T04:43:27;2;0;
63915;PMS5003;50094;51.356;-0.196;2023-02-28T04:45:56;0;0;
63915;PMS5003;50094;51.356;-0.196;2023-02-28T04:48:28;0;0;
63915;PMS5003;50094;51.356;-0.196;2023-02-28T04:50:59;0;0;
63915;PMS5003;50094;51.356;-0.196;2023-02-28T04:53:27;0;0;
63915;PMS5003;50094;51.356;-0.196;2023-02-28T04:55:55;1;0;
63915;PMS5003;50094;51.356;-0.196;2023-02-28T04:58:24;0;0;
63915;PMS5003;50094;51.356;-0.196;2023-02-28T05:00:52;0;0;
63915;PMS5003;50094;51.356;-0.196;2023-02-28T05:03:20;0;0;
63915;PMS5003;50094;51.356;-0.196;2023-02-28T05:05:48;2;1;
63915;PMS5003;50094;51.356;-0.196;2023-02-28T05:08:16;1;1;
63915;PMS5003;50094;51.356;-0.196;2023-02-28T05:10:44;1;1;
63915;PMS5003;50094;51.356;-0.196;2023-02-28T05:13:12;0;0;
63915;PMS5003;50094;51.356;-0.196;2023-02-28T05:15:39;2;1;
63915;PMS5003;50094;51.356;-0.196;2023-02-28T05:18:08;0;0;
63915;PMS5003;50094;51.356;-0.196;2023-02-28T05:20:36;1;1;
63915;PMS5003;50094;51.356;-0.196;2023-02-28T05:23:03;0;0;
63915;PMS5003;50094;51.356;-0.196;2023-02-28T05:25:31;1;1;
63915;PMS5003;50094;51.356;-0.196;2023-02-28T05:27:59;1;1;
63915;PMS5003;50094;51.356;-0.196;2023-02-28T05:30:27;2;0;
63915;PMS5003;50094;51.356;-0.196;2023-02-28T05:32:54;0;0;
63915;PMS5003;50094;51.356;-0.196;2023-02-28T05:35:22;0;0;
63915;PMS5003;50094;51.356;-0.196;2023-02-28T05:37:50;2;1;
63915;PMS5003;50094;51.356;-0.196;2023-02-28T05:40:17;8;6;
63915;PMS5003;50094;51.356;-0.196;2023-02-28T05:42:45;10;9;
63915;PMS5003;50094;51.356;-0.196;2023-02-28T05:45:13;21;21;
63915;PMS5003;50094;51.356;-0.196;2023-02-28T05:47:41;17;15;
63915;PMS5003;50094;51.356;-0.196;2023-02-28T05:50:09;23;23;
63915;PMS5003;50094;51.356;-0.196;2023-02-28T05:52:36;28;28;
63915;PMS5003;50094;51.356;-0.196;2023-02-28T05:55:04;15;15;
63915;PMS5003;50094;51.356;-0.196;2023-02-28T05:57:33;11;11;
63915;PMS5003;50094;51.356;-0.196;2023-02-28T06:00:01;11;11;
63915;PMS5003;50094;51.356;-0.196;2023-02-28T06:02:29;18;18;
63915;PMS5003;50094;51.356;-0.196;2023-02-28T06:04:56;22;22;
63915;PMS5003;50094;51.356;-0.196;2023-02-28T06:07:24;14;14;
63915;PMS5003;50094;51.356;-0.196;2023-02-28T06:09:52;12;12;
63915;PMS5003;50094;51.356;-0.196;2023-02-28T06:12:20;13;12;
63915;PMS5003;50094;51.356;-0.196;2023-02-28T06:14:47;13;13;
63915;PMS5003;50094;51.356;-0.196;2023-02-28T06:17:15;11;11;
63915;PMS5003;50094;51.356;-0.196;2023-02-28T06:19:43;9;9;
63915;PMS5003;50094;51.356;-0.196;2023-02-28T06:22:11;7;7;
63915;PMS5003;50094;51.356;-0.196;2023-02-28T06:24:38;9;9;
63915;PMS5003;50094;51.356;-0.196;2023-02-28T06:27:06;9;9;
63915;PMS5003;50094;51.356;-0.196;2023-02-28T06:29:34;5;5;
63915;PMS5003;50094;51.356;-0.196;2023-02-28T06:32:02;7;5;
63915;PMS5003;50094;51.356;-0.196;2023-02-28T06:34:29;0;0;
63915;PMS5003;50094;51.356;-0.196;2023-02-28T06:36:57;7;7;
63915;PMS5003;50094;51.356;-0.196;2023-02-28T06:39:25;11;11;
63915;PMS5003;50094;51.356;-0.196;2023-02-28T06:41:52;11;11;
63915;PMS5003;50094;51.356;-0.196;2023-02-28T06:44:19;12;12;
63915;PMS5003;50094;51.356;-0.196;2023-02-28T06:46:48;12;12;
63915;PMS5003;50094;51.356;-0.196;2023-02-28T06:49:16;19;19;
63915;PMS5003;50094;51.356;-0.196;2023-02-28T06:51:44;20;20;
63915;PMS5003;50094;51.356;-0.196;2023-02-28T06:54:11;18;18;
63915;PMS5003;50094;51.356;-0.196;2023-02-28T06:56:39;9;8;
63915;PMS5003;50094;51.356;-0.196;2023-02-28T06:59:07;10;8;
63915;PMS5003;50094;51.356;-0.196;2023-02-28T07:01:35;14;11;
63915;PMS5003;50094;51.356;-0.196;2023-02-28T07:04:03;18;17;
63915;PMS5003;50094;51.356;-0.196;2023-02-28T07:06:32;26;25;
63915;PMS5003;50094;51.356;-0.196;2023-02-28T07:09:00;22;22;
63915;PMS5003;50094;51.356;-0.196;2023-02-28T07:11:28;26;26;
63915;PMS5003;50094;51.356;-0.196;2023-02-28T07:13:56;20;20;
63915;PMS5003;50094;51.356;-0.196;2023-02-28T07:16:24;36;36;
63915;PMS5003;50094;51.356;-0.196;2023-02-28T07:18:52;16;16;
63915;PMS5003;50094;51.356;-0.196;2023-02-28T07:21:19;14;14;
63915;PMS5003;50094;51.356;-0.196;2023-02-28T07:23:47;16;16;
63915;PMS5003;50094;51.356;-0.196;2023-02-28T07:26:15;16;16;
63915;PMS5003;50094;51.356;-0.196;2023-02-28T07:28:45;15;15;
63915;PMS5003;50094;51.356;-0.196;2023-02-28T07:31:14;14;14;
63915;PMS5003;50094;51.356;-0.196;2023-02-28T07:33:43;15;14;
63915;PMS5003;50094;51.356;-0.196;2023-02-28T07:36:11;14;14;
63915;PMS5003;50094;51.356;-0.196;2023-02-28T07:38:40;12;12;
63915;PMS5003;50094;51.356;-0.196;2023-02-28T07:41:09;34;33;
63915;PMS5003;50094;51.356;-0.196;2023-02-28T07:43:36;12;12;
63915;PMS5003;50094;51.356;-0.196;2023-02-28T07:46:04;14;14;
63915;PMS5003;50094;51.356;-0.196;2023-02-28T07:48:34;16;16;
63915;PMS5003;50094;51.356;-0.196;2023-02-28T07:51:02;16;16;
63915;PMS5003;50094;51.356;-0.196;2023-02-28T07:53:29;16;15;
63915;PMS5003;50094;51.356;-0.196;2023-02-28T07:55:57;15;15;
63915;PMS5003;50094;51.356;-0.196;2023-02-28T07:58:26;34;33;
63915;PMS5003;50094;51.356;-0.196;2023-02-28T08:00:55;26;26;
63915;PMS5003;50094;51.356;-0.196;2023-02-28T08:03:24;13;13;
63915;PMS5003;50094;51.356;-0.196;2023-02-28T08:05:51;19;17;
63915;PMS5003;50094;51.356;-0.196;2023-02-28T08:08:19;11;11;
63915;PMS5003;50094;51.356;-0.196;2023-02-28T08:10:47;9;7;
63915;PMS5003;50094;51.356;-0.196;2023-02-28T08:13:14;2;1;
63915;PMS5003;50094;51.356;-0.196;2023-02-28T08:15:42;5;4;
63915;PMS5003;50094;51.356;-0.196;2023-02-28T08:18:09;2;2;
63915;PMS5003;50094;51.356;-0.196;2023-02-28T08:20:37;0;0;
63915;PMS5003;50094;51.356;-0.196;2023-02-28T08:23:05;1;1;
63915;PMS5003;50094;51.356;-0.196;2023-02-28T08:25:32;0;0;
63915;PMS5003;50094;51.356;-0.196;2023-02-28T08:28:00;2;2;
63915;PMS5003;50094;51.356;-0.196;2023-02-28T08:30:28;3;0;
63915;PMS5003;50094;51.356;-0.196;2023-02-28T08:32:55;0;0;
63915;PMS5003;50094;51.356;-0.196;2023-02-28T08:35:23;0;0;
63915;PMS5003;50094;51.356;-0.196;2023-02-28T08:37:51;1;1;
63915;PMS5003;50094;51.356;-0.196;2023-02-28T08:40:19;2;0;
63915;PMS5003;50094;51.356;-0.196;2023-02-28T08:42:47;2;0;
63915;PMS5003;50094;51.356;-0.196;2023-02-28T08:45:14;1;1;
63915;PMS5003;50094;51.356;-0.196;2023-02-28T08:47:42;0;0;
63915;PMS5003;50094;51.356;-0.196;2023-02-28T08:50:10;1;1;
63915;PMS5003;50094;51.356;-0.196;2023-02-28T08:52:37;2;1;
63915;PMS5003;50094;51.356;-0.196;2023-02-28T08:55:05;6;1;
63915;PMS5003;50094;51.356;-0.196;2023-02-28T08:57:34;0;0;
63915;PMS5003;50094;51.356;-0.196;2023-02-28T09:00:02;0;0;
63915;PMS5003;50094;51.356;-0.196;2023-02-28T09:02:30;0;0;
63915;PMS5003;50094;51.356;-0.196;2023-02-28T09:04:58;1;1;
63915;PMS5003;50094;51.356;-0.196;2023-02-28T09:07:26;0;0;
63915;PMS5003;50094;51.356;-0.196;2023-02-28T09:09:53;2;1;
63915;PMS5003;50094;51.356;-0.196;2023-02-28T09:12:21;1;1;
63915;PMS5003;50094;51.356;-0.196;2023-02-28T09:14:50;1;0;
63915;PMS5003;50094;51.356;-0.196;2023-02-28T09:17:17;0;0;
63915;PMS5003;50094;51.356;-0.196;2023-02-28T09:19:47;0;0;
63915;PMS5003;50094;51.356;-0.196;2023-02-28T09:22:15;1;1;
63915;PMS5003;50094;51.356;-0.196;2023-02-28T09:24:42;1;1;
63915;PMS5003;50094;51.356;-0.196;2023-02-28T09:27:10;1;1;
63915;PMS5003;50094;51.356;-0.196;2023-02-28T09:29:38;1;1;
63915;PMS5003;50094;51.356;-0.196;2023-02-28T09:32:06;0;0;
63915;PMS5003;50094;51.356;-0.196;2023-02-28T09:34:34;1;1;
63915;PMS5003;50094;51.356;-0.196;2023-02-28T09:37:01;1;0;
63915;PMS5003;50094;51.356;-0.196;2023-02-28T09:39:29;0;0;
63915;PMS5003;50094;51.356;-0.196;2023-02-28T09:41:57;0;0;
63915;PMS5003;50094;51.356;-0.196;2023-02-28T09:44:27;5;5;
63915;PMS5003;50094;51.356;-0.196;2023-02-28T09:47:00;3;3;
63915;PMS5003;50094;51.356;-0.196;2023-02-28T09:49:36;2;2;
63915;PMS5003;50094;51.356;-0.196;2023-02-28T09:52:09;2;2;
63915;PMS5003;50094;51.356;-0.196;2023-02-28T09:54:38;0;0;
63915;PMS5003;50094;51.356;-0.196;2023-02-28T09:57:07;2;2;
63915;PMS5003;50094;51.356;-0.196;2023-02-28T09:59:43;3;3;
63915;PMS5003;50094;51.356;-0.196;2023-02-28T10:02:35;3;3;
63915;PMS5003;50094;51.356;-0.196;2023-02-28T10:05:15;2;2;
63915;PMS5003;50094;51.356;-0.196;2023-02-28T10:07:48;0;0;
63915;PMS5003;50094;51.356;-0.196;2023-02-28T10:10:25;1;1;
63915;PMS5003;50094;51.356;-0.196;2023-02-28T10:12:57;1;1;
63915;PMS5003;50094;51.356;-0.196;2023-02-28T10:15:29;0;0;
63915;PMS5003;50094;51.356;-0.196;2023-02-28T10:18:00;0;0;
63915;PMS5003;50094;51.356;-0.196;2023-02-28T10:20:32;0;0;
63915;PMS5003;50094;51.356;-0.196;2023-02-28T10:23:04;0;0;
63915;PMS5003;50094;51.356;-0.196;2023-02-28T10:25:38;0;0;
63915;PMS5003;50094;51.356;-0.196;2023-02-28T10:28:09;0;0;
63915;PMS5003;50094;51.356;-0.196;2023-02-28T10:30:39;0;0;
63915;PMS5003;50094;51.356;-0.196;2023-02-28T10:33:15;0;0;
63915;PMS5003;50094;51.356;-0.196;2023-02-28T10:35:48;0;0;
63915;PMS5003;50094;51.356;-0.196;2023-02-28T10:38:17;0;0;
63915;PMS5003;50094;51.356;-0.196;2023-02-28T10:40:47;0;0;
63915;PMS5003;50094;51.356;-0.196;2023-02-28T10:43:19;0;0;
63915;PMS5003;50094;51.356;-0.196;2023-02-28T10:45:53;0;0;
63915;PMS5003;50094;51.356;-0.196;2023-02-28T10:48:27;0;0;
63915;PMS5003;50094;51.356;-0.196;2023-02-28T10:50:59;0;0;
63915;PMS5003;50094;51.356;-0.196;2023-02-28T10:53:30;0;0;
63915;PMS5003;50094;51.356;-0.196;2023-02-28T10:56:00;1;0;
63915;PMS5003;50094;51.356;-0.196;2023-02-28T10:58:30;1;0;
63915;PMS5003;50094;51.356;-0.196;2023-02-28T11:01:12;0;0;
63915;PMS5003;50094;51.356;-0.196;2023-02-28T11:03:42;0;0;
63915;PMS5003;50094;51.356;-0.196;2023-02-28T11:06:13;0;0;
63915;PMS5003;50094;51.356;-0.196;2023-02-28T11:08:45;0;0;
63915;PMS5003;50094;51.356;-0.196;2023-02-28T11:11:15;0;0;
63915;PMS5003;50094;51.356;-0.196;2023-02-28T11:13:44;0;0;
63915;PMS5003;50094;51.356;-0.196;2023-02-28T11:16:14;0;0;
63915;PMS5003;50094;51.356;-0.196;2023-02-28T11:18:42;0;0;
63915;PMS5003;50094;51.356;-0.196;2023-02-28T11:21:16;0;0;
63915;PMS5003;50094;51.356;-0.196;2023-02-28T11:23:47;0;0;
63915;PMS5003;50094;51.356;-0.196;2023-02-28T11:26:35;2;0;
63915;PMS5003;50094;51.356;-0.196;2023-02-28T11:29:09;1;1;
63915;PMS5003;50094;51.356;-0.196;2023-02-28T11:31:42;0;0;
63915;PMS5003;50094;51.356;-0.196;2023-02-28T11:34:22;0;0;
63915;PMS5003;50094;51.356;-0.196;2023-02-28T11:36:50;0;0;
63915;PMS5003;50094;51.356;-0.196;2023-02-28T11:39:20;0;0;
63915;PMS5003;50094;51.356;-0.196;2023-02-28T11:41:55;1;0;
63915;PMS5003;50094;51.356;-0.196;2023-02-28T11:44:35;0;0;
63915;PMS5003;50094;51.356;-0.196;2023-02-28T11:47:11;0;0;
63915;PMS5003;50094;51.356;-0.196;2023-02-28T11:49:47;0;0;
63915;PMS5003;50094;51.356;-0.196;2023-02-28T11:52:33;0;0;
63915;PMS5003;50094;51.356;-0.196;2023-02-28T11:55:08;0;0;
63915;PMS5003;50094;51.356;-0.196;2023-02-28T11:57:48;0;0;
63915;PMS5003;50094;51.356;-0.196;2023-02-28T12:00:30;0;0;
63915;PMS5003;50094;51.356;-0.196;2023-02-28T12:03:12;0;0;
63915;PMS5003;50094;51.356;-0.196;2023-02-28T12:05:49;0;0;
63915;PMS5003;50094;51.356;-0.196;2023-02-28T12:08:31;0;0;
63915;PMS5003;50094;51.356;-0.196;2023-02-28T12:11:11;0;0;
63915;PMS5003;50094;51.356;-0.196;2023-02-28T12:13:54;0;0;
63915;PMS5003;50094;51.356;-0.196;2023-02-28T12:16:47;1;1;
63915;PMS5003;50094;51.356;-0.196;2023-02-28T12:19:25;0;0;
63915;PMS5003;50094;51.356;-0.196;2023-02-28T12:22:05;0;0;
63915;PMS5003;50094;51.356;-0.196;2023-02-28T12:24:48;0;0;
63915;PMS5003;50094;51.356;-0.196;2023-02-28T12:27:26;1;1;
63915;PMS5003;50094;51.356;-0.196;2023-02-28T12:29:58;0;0;
63915;PMS5003;50094;51.356;-0.196;2023-02-28T12:32:31;1;1;
63915;PMS5003;50094;51.356;-0.196;2023-02-28T12:35:02;0;0;
63915;PMS5003;50094;51.356;-0.196;2023-02-28T12:37:38;0;0;
63915;PMS5003;50094;51.356;-0.196;2023-02-28T12:40:12;0;0;
63915;PMS5003;50094;51.356;-0.196;2023-02-28T12:42:43;0;0;
63915;PMS5003;50094;51.356;-0.196;2023-02-28T12:45:16;0;0;
63915;PMS5003;50094;51.356;-0.196;2023-02-28T12:47:48;0;0;
63915;PMS5003;50094;51.356;-0.196;2023-02-28T12:50:21;0;0;
63915;PMS5003;50094;51.356;-0.196;2023-02-28T12:52:52;0;0;
63915;PMS5003;50094;51.356;-0.196;2023-02-28T12:55:27;1;0;
63915;PMS5003;50094;51.356;-0.196;2023-02-28T12:58:05;0;0;
63915;PMS5003;50094;51.356;-0.196;2023-02-28T13:00:44;0;0;
63915;PMS5003;50094;51.356;-0.196;2023-02-28T13:03:38;0;0;
63915;PMS5003;50094;51.356;-0.196;2023-02-28T13:06:21;2;0;
63915;PMS5003;50094;51.356;-0.196;2023-02-28T13:09:02;0;0;
63915;PMS5003;50094;51.356;-0.196;2023-02-28T13:11:39;1;1;
63915;PMS5003;50094;51.356;-0.196;2023-02-28T13:14:18;0;0;
63915;PMS5003;50094;51.356;-0.196;2023-02-28T13:16:58;1;0;
63915;PMS5003;50094;51.356;-0.196;2023-02-28T13:19:29;0;0;
63915;PMS5003;50094;51.356;-0.196;2023-02-28T13:21:59;0;0;
63915;PMS5003;50094;51.356;-0.196;2023-02-28T13:24:38;0;0;
63915;PMS5003;50094;51.356;-0.196;2023-02-28T13:27:11;0;0;
63915;PMS5003;50094;51.356;-0.196;2023-02-28T13:29:50;0;0;
63915;PMS5003;50094;51.356;-0.196;2023-02-28T13:32:30;0;0;
63915;PMS5003;50094;51.356;-0.196;2023-02-28T13:35:47;2;0;
63915;PMS5003;50094;51.356;-0.196;2023-02-28T13:38:16;0;0;
63915;PMS5003;50094;51.356;-0.196;2023-02-28T13:41:26;1;1;
63915;PMS5003;50094;51.356;-0.196;2023-02-28T13:44:09;0;0;
63915;PMS5003;50094;51.356;-0.196;2023-02-28T13:47:15;0;0;
63915;PMS5003;50094;51.356;-0.196;2023-02-28T13:49:50;0;0;
63915;PMS5003;50094;51.356;-0.196;2023-02-28T13:52:20;0;0;
63915;PMS5003;50094;51.356;-0.196;2023-02-28T13:54:53;1;0;
63915;PMS5003;50094;51.356;-0.196;2023-02-28T13:57:31;1;1;
63915;PMS5003;50094;51.356;-0.196;2023-02-28T14:00:15;0;0;
63915;PMS5003;50094;51.356;-0.196;2023-02-28T14:02:54;0;0;
63915;PMS5003;50094;51.356;-0.196;2023-02-28T14:05:41;0;0;
63915;PMS5003;50094;51.356;-0.196;2023-02-28T14:08:11;0;0;
63915;PMS5003;50094;51.356;-0.196;2023-02-28T14:10:43;1;0;
63915;PMS5003;50094;51.356;-0.196;2023-02-28T14:13:14;0;0;
63915;PMS5003;50094;51.356;-0.196;2023-02-28T14:16:04;0;0;
63915;PMS5003;50094;51.356;-0.196;2023-02-28T14:18:33;0;0;
63915;PMS5003;50094;51.356;-0.196;2023-02-28T14:21:09;0;0;
63915;PMS5003;50094;51.356;-0.196;2023-02-28T14:24:06;0;0;
63915;PMS5003;50094;51.356;-0.196;2023-02-28T14:26:53;0;0;
63915;PMS5003;50094;51.356;-0.196;2023-02-28T14:29:35;1;0;
63915;PMS5003;50094;51.356;-0.196;2023-02-28T14:32:21;1;1;
63915;PMS5003;50094;51.356;-0.196;2023-02-28T14:34:57;1;1;
63915;PMS5003;50094;51.356;-0.196;2023-02-28T14:37:37;0;0;
63915;PMS5003;50094;51.356;-0.196;2023-02-28T14:40:11;0;0;
63915;PMS5003;50094;51.356;-0.196;2023-02-28T14:42:46;0;0;
63915;PMS5003;50094;51.356;-0.196;2023-02-28T14:45:20;0;0;
63915;PMS5003;50094;51.356;-0.196;2023-02-28T14:47:49;1;0;
63915;PMS5003;50094;51.356;-0.196;2023-02-28T14:50:19;1;1;
63915;PMS5003;50094;51.356;-0.196;2023-02-28T14:52:50;1;1;
63915;PMS5003;50094;51.356;-0.196;2023-02-28T14:55:19;0;0;
63915;PMS5003;50094;51.356;-0.196;2023-02-28T14:57:52;0;0;
63915;PMS5003;50094;51.356;-0.196;2023-02-28T15:00:22;0;0;
63915;PMS5003;50094;51.356;-0.196;2023-02-28T15:02:52;0;0;
63915;PMS5003;50094;51.356;-0.196;2023-02-28T15:05:24;0;0;
63915;PMS5003;50094;51.356;-0.196;2023-02-28T15:08:04;0;0;
63915;PMS5003;50094;51.356;-0.196;2023-02-28T15:10:37;0;0;
63915;PMS5003;50094;51.356;-0.196;2023-02-28T15:13:07;1;1;
63915;PMS5003;50094;51.356;-0.196;2023-02-28T15:15:40;0;0;
63915;PMS5003;50094;51.356;-0.196;2023-02-28T15:18:14;0;0;
63915;PMS5003;50094;51.356;-0.196;2023-02-28T15:20:48;0;0;
63915;PMS5003;50094;51.356;-0.196;2023-02-28T15:23:17;0;0;
63915;PMS5003;50094;51.356;-0.196;2023-02-28T15:25:47;0;0;
63915;PMS5003;50094;51.356;-0.196;2023-02-28T15:28:16;0;0;
63915;PMS5003;50094;51.356;-0.196;2023-02-28T15:30:51;0;0;
63915;PMS5003;50094;51.356;-0.196;2023-02-28T15:33:22;0;0;
63915;PMS5003;50094;51.356;-0.196;2023-02-28T15:35:51;1;0;
63915;PMS5003;50094;51.356;-0.196;2023-02-28T15:38:32;1;0;
63915;PMS5003;50094;51.356;-0.196;2023-02-28T15:41:02;0;0;
63915;PMS5003;50094;51.356;-0.196;2023-02-28T15:43:30;0;0;
63915;PMS5003;50094;51.356;-0.196;2023-02-28T15:45:59;0;0;
63915;PMS5003;50094;51.356;-0.196;2023-02-28T15:48:29;0;0;
63915;PMS5003;50094;51.356;-0.196;2023-02-28T15:51:01;0;0;
63915;PMS5003;50094;51.356;-0.196;2023-02-28T15:53:35;0;0;
63915;PMS5003;50094;51.356;-0.196;2023-02-28T15:56:06;0;0;
63915;PMS5003;50094;51.356;-0.196;2023-02-28T15:58:46;0;0;
63915;PMS5003;50094;51.356;-0.196;2023-02-28T16:01:19;2;0;
63915;PMS5003;50094;51.356;-0.196;2023-02-28T16:03:51;0;0;
63915;PMS5003;50094;51.356;-0.196;2023-02-28T16:06:26;0;0;
63915;PMS5003;50094;51.356;-0.196;2023-02-28T16:09:01;0;0;
63915;PMS5003;50094;51.356;-0.196;2023-02-28T16:11:37;0;0;
63915;PMS5003;50094;51.356;-0.196;2023-02-28T16:14:08;0;0;
63915;PMS5003;50094;51.356;-0.196;2023-02-28T16:16:42;0;0;
63915;PMS5003;50094;51.356;-0.196;2023-02-28T16:19:10;0;0;
63915;PMS5003;50094;51.356;-0.196;2023-02-28T16:21:38;0;0;
63915;PMS5003;50094;51.356;-0.196;2023-02-28T16:24:06;0;0;
63915;PMS5003;50094;51.356;-0.196;2023-02-28T16:26:34;0;0;
63915;PMS5003;50094;51.356;-0.196;2023-02-28T16:29:03;1;0;
63915;PMS5003;50094;51.356;-0.196;2023-02-28T16:31:30;0;0;
63915;PMS5003;50094;51.356;-0.196;2023-02-28T16:34:01;0;0;
63915;PMS5003;50094;51.356;-0.196;2023-02-28T16:36:28;0;0;
63915;PMS5003;50094;51.356;-0.196;2023-02-28T16:38:56;2;0;
63915;PMS5003;50094;51.356;-0.196;2023-02-28T16:41:25;0;0;
63915;PMS5003;50094;51.356;-0.196;2023-02-28T16:43:55;0;0;
63915;PMS5003;50094;51.356;-0.196;2023-02-28T16:46:27;0;0;
63915;PMS5003;50094;51.356;-0.196;2023-02-28T16:48:59;0;0;
63915;PMS5003;50094;51.356;-0.196;2023-02-28T16:51:27;0;0;
63915;PMS5003;50094;51.356;-0.196;2023-02-28T16:53:55;0;0;
63915;PMS5003;50094;51.356;-0.196;2023-02-28T16:56:23;0;0;